Terminal Aerodrome Forecast
Issued by NWS

Current Version | Previous Version | Text Only | Print | Product List | Glossary Off
Versions: 1 2 3 4 5 6 7 8 9 10 11 12 13 14 15 16 17 18 19

000
FTUS41 KRLX 230500
TAFCKB
TAF
KCKB 230533Z 2306/2406 07004KT P6SM BKN050
     FM231100 10005KT P6SM VCSH BKN025
     FM231400 18005KT 6SM -SHRA BKN025
     FM231700 20008KT P6SM BKN040
     FM240000 15004KT P6SM BKN045=

USA.gov is the U.S. government's official web portal to all federal, state and local government web resources and services.